Time;durP1;ratioP1;P1;durP2;ratioP2;P2;SDS_P1;SDS_P2;PMS_P1;PMS_P2;Temp;Humidity;BMP_temperature;BMP_pressure;BME280_temperature;BME280_humidity;BME280_pressure;Samples;Min_cycle;Max_cycle;Signal;HPM_P1;HPM_P2
2022/11/10 00:00:07;;;;;;;5.27;3.10;;;14.30;99.90;;;;;;5052649;28;20257;-69
2022/11/10 00:02:32;;;;;;;7.60;3.57;;;14.30;99.90;;;;;;5034161;28;20178;-69
2022/11/10 00:04:58;;;;;;;3.90;3.60;;;14.30;99.90;;;;;;5052773;28;20455;-69
2022/11/10 00:07:27;;;;;;;4.80;3.70;;;14.30;99.90;;;;;;5052122;28;20227;-69
2022/11/10 00:09:53;;;;;;;5.03;3.90;;;14.30;99.90;;;;;;5023202;28;20226;-69
2022/11/10 00:12:21;;;;;;;6.10;3.60;;;14.30;99.90;;;;;;5032723;28;20791;-69
2022/11/10 00:17:31;;;;;;;5.13;3.30;;;14.50;99.90;;;;;;5031972;28;20401;-70
2022/11/10 00:19:57;;;;;;;3.50;3.20;;;14.40;99.90;;;;;;5037164;28;20430;-69
2022/11/10 00:22:23;;;;;;;5.53;3.93;;;14.30;99.90;;;;;;5052502;28;20408;-69
2022/11/10 00:24:48;;;;;;;6.40;3.43;;;14.40;99.90;;;;;;5051400;28;20177;-69
2022/11/10 00:27:14;;;;;;;5.90;3.80;;;14.40;99.90;;;;;;5038625;28;20244;-69
2022/11/10 00:29:40;;;;;;;8.63;3.93;;;14.40;99.90;;;;;;5013856;28;20655;-69
2022/11/10 00:32:07;;;;;;;8.23;3.63;;;14.40;99.90;;;;;;5032400;28;20186;-68
2022/11/10 00:34:33;;;;;;;5.47;3.20;;;14.40;99.90;;;;;;5031589;28;20417;-69
2022/11/10 00:36:58;;;;;;;6.73;3.60;;;14.50;99.90;;;;;;5032348;28;20773;-69
2022/11/10 00:39:24;;;;;;;6.00;3.90;;;14.50;99.90;;;;;;5032337;28;20911;-69
2022/11/10 00:41:50;;;;;;;4.40;3.73;;;14.50;99.90;;;;;;5031333;28;20556;-69
2022/11/10 00:44:15;;;;;;;5.17;2.90;;;14.50;99.90;;;;;;5028253;28;20187;-69
2022/11/10 00:46:41;;;;;;;7.10;3.40;;;14.40;99.90;;;;;;5051389;28;20212;-69
2022/11/10 00:49:07;;;;;;;4.70;3.10;;;14.40;99.90;;;;;;5050982;28;20185;-69
2022/11/10 00:51:33;;;;;;;9.03;3.77;;;14.40;99.90;;;;;;5050164;28;20271;-69
2022/11/10 00:53:58;;;;;;;5.67;3.80;;;14.40;99.90;;;;;;5052084;28;20617;-69
2022/11/10 00:56:25;;;;;;;6.07;4.20;;;14.30;99.90;;;;;;5043041;28;20229;-69
2022/11/10 00:58:50;;;;;;;7.70;3.83;;;14.50;99.90;;;;;;5037505;28;20189;-69
2022/11/10 01:01:18;;;;;;;7.00;3.73;;;14.40;99.90;;;;;;5050930;28;20436;-69
2022/11/10 01:03:44;;;;;;;8.43;3.10;;;14.40;99.90;;;;;;5050062;28;20181;-69
2022/11/10 01:06:13;;;;;;;4.20;3.20;;;14.40;99.90;;;;;;5050834;28;20779;-69
2022/11/10 01:08:40;;;;;;;7.27;3.67;;;14.50;99.90;;;;;;5050777;28;20700;-69
2022/11/10 01:11:40;;;;;;;4.47;3.60;;;14.40;99.90;;;;;;5028538;28;20876;-69
2022/11/10 01:14:06;;;;;;;5.70;3.30;;;14.40;99.90;;;;;;5044490;28;20449;-69
2022/11/10 01:16:31;;;;;;;6.77;3.40;;;14.40;99.90;;;;;;5033952;28;20765;-71
2022/11/10 01:18:59;;;;;;;5.60;3.20;;;14.40;99.90;;;;;;5042064;28;20532;-69
2022/11/10 01:21:26;;;;;;;5.90;3.20;;;14.40;99.90;;;;;;5054439;28;20214;-69
2022/11/10 01:23:52;;;;;;;4.40;3.70;;;14.40;99.90;;;;;;5052859;28;20420;-69
2022/11/10 01:26:18;;;;;;;4.43;3.50;;;14.40;99.90;;;;;;5035022;28;21008;-69
2022/11/10 01:28:45;;;;;;;5.93;4.40;;;14.40;99.90;;;;;;5039889;28;20425;-69
2022/11/10 01:31:17;;;;;;;5.70;4.00;;;14.40;99.90;;;;;;5051317;28;20468;-69
2022/11/10 01:33:43;;;;;;;6.47;3.83;;;14.30;99.90;;;;;;5016185;28;20836;-69
2022/11/10 01:36:11;;;;;;;6.37;3.27;;;14.40;99.90;;;;;;5045417;28;20415;-69
2022/11/10 01:38:39;;;;;;;5.07;3.90;;;14.20;99.90;;;;;;5052248;28;20520;-69
2022/11/10 01:41:07;;;;;;;4.23;3.60;;;14.20;99.90;;;;;;5035727;28;20443;-69
2022/11/10 01:43:33;;;;;;;5.33;3.13;;;14.20;99.90;;;;;;5053001;28;20431;-71
2022/11/10 01:46:04;;;;;;;8.57;4.17;;;14.20;99.90;;;;;;5048931;28;20940;-69
2022/11/10 01:48:56;;;;;;;10.60;4.60;;;14.20;99.90;;;;;;5041702;28;20435;-68
2022/11/10 01:51:30;;;;;;;5.60;3.60;;;14.20;99.90;;;;;;5042808;28;20834;-68
2022/11/10 01:53:59;;;;;;;7.13;3.47;;;14.20;99.90;;;;;;5050972;28;20822;-69
2022/11/10 01:56:29;;;;;;;7.90;3.90;;;14.30;99.90;;;;;;5052688;28;20790;-69
2022/11/10 01:58:59;;;;;;;7.40;3.47;;;14.20;99.90;;;;;;5035431;28;20411;-69
2022/11/10 02:01:26;;;;;;;6.87;3.37;;;14.20;99.90;;;;;;5053700;28;20549;-68
2022/11/10 02:03:58;;;;;;;3.33;2.90;;;14.10;99.90;;;;;;5053137;28;20496;-69
2022/11/10 02:06:28;;;;;;;7.63;4.10;;;14.10;99.90;;;;;;5005963;28;1364244;-69
2022/11/10 02:08:57;;;;;;;6.40;3.30;;;14.00;99.90;;;;;;5036035;28;21026;-69
2022/11/10 02:11:23;;;;;;;5.60;3.83;;;14.00;99.90;;;;;;5019607;28;20466;-69
2022/11/10 02:13:49;;;;;;;8.47;3.20;;;14.10;99.90;;;;;;5044249;28;20425;-69
2022/11/10 02:16:15;;;;;;;4.13;3.10;;;14.10;99.90;;;;;;5052925;28;20452;-68
2022/11/10 02:18:41;;;;;;;5.40;3.50;;;14.10;99.90;;;;;;5050367;28;20462;-69
2022/11/10 02:21:08;;;;;;;5.00;4.40;;;14.00;99.90;;;;;;5053717;28;20659;-68
2022/11/10 02:23:36;;;;;;;5.53;3.80;;;14.00;99.90;;;;;;5054004;28;20195;-71
2022/11/10 02:26:04;;;;;;;4.10;3.10;;;14.00;99.90;;;;;;5047649;28;20464;-68
2022/11/10 02:28:35;;;;;;;7.30;3.93;;;14.00;99.90;;;;;;5016427;28;20432;-69
2022/11/10 02:31:02;;;;;;;6.37;3.87;;;14.00;99.90;;;;;;5033441;28;20498;-68
2022/11/10 02:33:28;;;;;;;7.60;4.10;;;14.00;99.90;;;;;;5050208;28;20421;-68
2022/11/10 02:35:54;;;;;;;8.27;4.27;;;14.10;99.90;;;;;;5001164;28;20450;-69
2022/11/10 02:38:20;;;;;;;6.50;4.03;;;14.00;99.90;;;;;;5044764;28;20186;-69
2022/11/10 02:40:48;;;;;;;8.03;4.67;;;14.00;99.90;;;;;;5050988;28;20197;-69
2022/11/10 02:43:15;;;;;;;7.30;3.83;;;14.00;99.90;;;;;;5035749;28;20224;-69
2022/11/10 02:45:44;;;;;;;6.53;4.43;;;14.00;99.90;;;;;;5051095;28;20473;-69
2022/11/10 02:48:11;;;;;;;8.03;4.47;;;14.00;99.90;;;;;;5034936;28;20436;-68
2022/11/10 02:50:38;;;;;;;6.50;3.60;;;14.00;99.90;;;;;;5052500;28;20471;-71
2022/11/10 02:53:04;;;;;;;9.00;3.30;;;14.00;99.90;;;;;;5017823;28;20946;-68
2022/11/10 02:55:30;;;;;;;4.50;3.40;;;14.00;99.90;;;;;;5053013;28;20439;-68
2022/11/10 02:57:55;;;;;;;6.10;3.87;;;14.00;99.90;;;;;;5052061;28;20424;-69
2022/11/10 03:00:21;;;;;;;5.13;3.97;;;14.10;99.90;;;;;;5053183;28;20195;-69
2022/11/10 03:02:47;;;;;;;13.00;3.97;;;14.00;99.90;;;;;;5051230;28;20184;-69
2022/11/10 03:05:13;;;;;;;4.07;3.70;;;14.00;99.90;;;;;;5052531;28;20251;-69
2022/11/10 03:07:38;;;;;;;5.07;3.70;;;13.90;99.90;;;;;;5050946;28;20227;-71
2022/11/10 03:10:05;;;;;;;5.70;3.90;;;13.90;99.90;;;;;;5052413;28;20676;-69
2022/11/10 03:12:31;;;;;;;8.03;3.97;;;13.90;99.90;;;;;;5043086;28;20197;-69
2022/11/10 03:14:56;;;;;;;7.40;3.73;;;13.90;99.90;;;;;;5033184;28;20420;-69
2022/11/10 03:17:22;;;;;;;7.90;3.80;;;13.90;99.90;;;;;;5038544;28;20573;-69
2022/11/10 03:19:49;;;;;;;9.37;4.17;;;14.00;99.90;;;;;;5015360;28;20227;-69
2022/11/10 03:22:14;;;;;;;5.73;3.60;;;13.90;99.90;;;;;;5033577;28;20195;-69
2022/11/10 03:24:40;;;;;;;6.67;4.47;;;13.90;99.90;;;;;;5032981;28;20405;-71
2022/11/10 03:27:06;;;;;;;7.23;4.10;;;13.90;99.90;;;;;;5015869;28;20235;-69
2022/11/10 03:29:31;;;;;;;6.67;3.80;;;13.90;99.90;;;;;;5033584;28;20228;-69
2022/11/10 03:31:57;;;;;;;5.60;3.47;;;13.90;99.90;;;;;;5031796;28;20397;-69
2022/11/10 03:34:23;;;;;;;5.13;3.70;;;13.90;99.90;;;;;;5048399;28;20543;-69
2022/11/10 03:36:49;;;;;;;7.07;3.70;;;14.00;99.90;;;;;;5052505;28;20179;-69
2022/11/10 03:39:14;;;;;;;4.10;3.70;;;14.00;99.90;;;;;;5035459;28;20423;-69
2022/11/10 03:41:40;;;;;;;5.57;3.70;;;14.00;99.90;;;;;;5052691;28;20643;-71
2022/11/10 03:44:06;;;;;;;3.57;3.37;;;13.90;99.90;;;;;;5053267;28;20618;-69
2022/11/10 03:46:31;;;;;;;6.20;3.70;;;13.90;99.90;;;;;;5052129;28;20624;-69
2022/11/10 03:48:57;;;;;;;6.80;3.80;;;13.90;99.90;;;;;;5052370;28;20182;-69
2022/11/10 03:51:23;;;;;;;4.00;3.60;;;13.90;99.90;;;;;;5037798;28;20222;-69
2022/11/10 03:53:49;;;;;;;6.13;4.10;;;14.00;99.90;;;;;;5032319;28;20222;-69
2022/11/10 03:56:15;;;;;;;4.37;3.97;;;14.00;99.90;;;;;;5032780;28;20180;-68
2022/11/10 03:58:41;;;;;;;5.73;3.77;;;14.00;99.90;;;;;;5032615;28;20419;-71
2022/11/10 04:01:07;;;;;;;5.40;3.90;;;13.90;99.90;;;;;;5032936;28;20503;-69
2022/11/10 04:03:33;;;;;;;5.20;4.10;;;13.90;99.90;;;;;;5032864;28;20533;-69
2022/11/10 04:08:58;;;;;;;7.23;4.30;;;14.00;99.90;;;;;;5040025;28;20482;-71
2022/11/10 04:16:54;;;;;;;7.50;4.30;;;14.00;99.90;;;;;;5047935;28;20518;-70
2022/11/10 04:19:20;;;;;;;10.67;4.47;;;13.90;99.90;;;;;;5034904;28;20851;-70
2022/11/10 04:21:46;;;;;;;15.17;4.90;;;14.00;99.90;;;;;;5034579;28;20417;-70
2022/11/10 04:24:11;;;;;;;7.83;3.90;;;14.00;99.90;;;;;;5051738;28;20189;-70
2022/11/10 04:26:37;;;;;;;7.70;4.70;;;14.00;99.90;;;;;;5052472;28;20473;-70
2022/11/10 04:29:07;;;;;;;6.07;3.93;;;14.00;99.90;;;;;;5051932;28;20631;-70
2022/11/10 04:31:36;;;;;;;6.97;4.67;;;14.10;99.90;;;;;;5034905;28;20211;-70
2022/11/10 04:34:08;;;;;;;4.87;4.40;;;14.00;99.90;;;;;;5050814;28;20431;-70
2022/11/10 04:36:35;;;;;;;6.37;4.37;;;14.00;99.90;;;;;;5032406;28;20750;-70
2022/11/10 04:39:02;;;;;;;11.27;4.40;;;14.00;99.90;;;;;;5045620;28;20554;-70
2022/11/10 04:41:29;;;;;;;5.63;4.30;;;14.10;99.90;;;;;;5043640;28;20438;-70
2022/11/10 04:43:55;;;;;;;8.93;5.30;;;14.10;99.90;;;;;;5031527;28;20404;-70
2022/11/10 04:46:35;;;;;;;8.63;5.10;;;14.10;99.90;;;;;;5032327;28;20474;-70
2022/11/10 04:49:03;;;;;;;5.67;5.17;;;14.10;99.90;;;;;;5042019;28;20519;-70
2022/11/10 04:51:34;;;;;;;6.63;4.73;;;14.10;99.90;;;;;;5017719;28;20472;-70
2022/11/10 04:54:01;;;;;;;6.73;4.40;;;14.00;99.90;;;;;;5014144;28;20912;-70
2022/11/10 04:56:27;;;;;;;10.10;4.40;;;14.00;99.90;;;;;;5032322;28;20420;-70
2022/11/10 04:58:53;;;;;;;8.73;4.20;;;14.00;99.90;;;;;;5032118;28;20487;-70
2022/11/10 05:01:22;;;;;;;5.20;4.30;;;14.00;99.90;;;;;;5031799;28;20919;-70
2022/11/10 05:03:49;;;;;;;8.17;4.23;;;13.90;99.90;;;;;;5029616;28;21846;-71
2022/11/10 05:06:14;;;;;;;5.53;4.83;;;13.90;99.90;;;;;;5051181;28;20435;-70
2022/11/10 05:08:41;;;;;;;9.90;4.13;;;13.90;99.90;;;;;;5004279;28;20470;-70
2022/11/10 05:11:07;;;;;;;9.67;4.83;;;13.90;99.90;;;;;;5050773;28;20622;-70
2022/11/10 05:13:33;;;;;;;8.00;5.07;;;14.00;99.90;;;;;;5014011;28;20439;-71
2022/11/10 05:15:59;;;;;;;10.60;4.70;;;13.90;99.90;;;;;;5034371;28;20438;-70
2022/11/10 05:18:25;;;;;;;6.23;4.30;;;14.00;99.90;;;;;;5051264;28;20431;-69
2022/11/10 05:20:52;;;;;;;7.47;4.33;;;14.00;99.90;;;;;;5051611;28;20415;-70
2022/11/10 05:23:37;;;;;;;10.73;5.37;;;14.00;99.90;;;;;;5052180;28;20173;-70
2022/11/10 05:26:12;;;;;;;10.00;5.00;;;14.00;99.90;;;;;;5046595;28;20825;-71
2022/11/10 05:28:39;;;;;;;14.33;4.70;;;13.90;99.90;;;;;;5048182;28;20434;-71
2022/11/10 05:31:05;;;;;;;6.20;4.23;;;13.90;99.90;;;;;;5051466;28;20509;-71
2022/11/10 05:33:32;;;;;;;5.90;4.43;;;13.90;99.90;;;;;;5052103;28;20473;-71
2022/11/10 05:35:58;;;;;;;9.17;6.10;;;13.90;99.90;;;;;;5050306;28;20947;-71
2022/11/10 05:38:23;;;;;;;10.10;6.03;;;13.90;99.90;;;;;;5051021;28;20434;-71
2022/11/10 05:40:49;;;;;;;13.60;6.43;;;13.90;99.90;;;;;;5032937;28;20195;-72
2022/11/10 05:43:15;;;;;;;14.50;7.07;;;13.90;99.90;;;;;;5051582;28;20177;-71
2022/11/10 05:45:41;;;;;;;6.83;5.17;;;13.90;99.90;;;;;;5050373;28;20213;-71
2022/11/10 05:48:07;;;;;;;12.40;6.33;;;13.80;99.90;;;;;;5032127;28;20536;-71
2022/11/10 05:50:33;;;;;;;11.10;6.00;;;13.80;99.90;;;;;;5047220;28;20986;-72
2022/11/10 05:52:58;;;;;;;11.67;6.17;;;13.70;99.90;;;;;;5041921;28;20249;-69
2022/11/10 05:55:26;;;;;;;10.87;7.03;;;13.80;99.90;;;;;;5047642;28;20176;-69
2022/11/10 05:57:54;;;;;;;5.67;5.03;;;13.80;99.90;;;;;;5017383;28;20668;-68
2022/11/10 06:00:22;;;;;;;7.03;5.57;;;13.80;99.90;;;;;;5038808;28;20423;-67
2022/11/10 06:03:00;;;;;;;12.33;5.77;;;13.80;99.90;;;;;;5036507;28;20425;-68
2022/11/10 06:05:26;;;;;;;8.77;5.23;;;13.80;99.90;;;;;;5035497;28;20455;-67
2022/11/10 06:07:52;;;;;;;11.10;4.93;;;13.80;99.90;;;;;;5034798;28;20468;-68
2022/11/10 06:10:18;;;;;;;8.77;5.60;;;13.70;99.90;;;;;;5035432;28;20488;-68
2022/11/10 06:12:43;;;;;;;8.87;6.07;;;13.70;99.90;;;;;;5049377;28;20206;-68
2022/11/10 06:15:10;;;;;;;6.30;5.47;;;13.70;99.90;;;;;;5054694;28;20184;-68
2022/11/10 06:17:38;;;;;;;11.67;5.73;;;13.70;99.90;;;;;;5054222;28;20203;-68
2022/11/10 06:20:07;;;;;;;10.17;5.00;;;13.80;99.90;;;;;;5054550;28;20900;-68
2022/11/10 06:22:33;;;;;;;7.90;5.10;;;13.80;99.90;;;;;;5050690;28;20917;-68
2022/11/10 06:24:59;;;;;;;7.33;4.80;;;13.80;99.90;;;;;;5047621;28;20479;-68
2022/11/10 06:27:24;;;;;;;7.23;5.30;;;13.90;99.90;;;;;;5037484;28;20181;-68
2022/11/10 06:29:50;;;;;;;6.77;5.10;;;14.00;99.90;;;;;;5054300;28;20176;-68
2022/11/10 06:32:16;;;;;;;7.60;5.40;;;13.90;99.90;;;;;;5019362;28;20192;-68
2022/11/10 06:34:42;;;;;;;8.50;6.43;;;13.90;99.90;;;;;;5054190;28;20189;-68
2022/11/10 06:37:08;;;;;;;8.30;5.73;;;13.90;99.90;;;;;;5053426;28;20530;-67
2022/11/10 06:39:34;;;;;;;9.53;5.43;;;14.00;99.90;;;;;;5054730;28;20760;-68
2022/11/10 06:41:59;;;;;;;7.23;5.80;;;14.00;99.90;;;;;;5053757;28;20238;-68
2022/11/10 06:44:25;;;;;;;9.90;6.40;;;13.80;99.90;;;;;;5052708;28;20599;-68
2022/11/10 06:46:51;;;;;;;24.70;16.40;;;13.70;99.90;;;;;;5053074;28;20553;-68
2022/11/10 06:49:17;;;;;;;10.23;7.13;;;13.80;99.90;;;;;;5054556;28;20172;-68
2022/11/10 06:51:43;;;;;;;9.37;5.50;;;13.80;99.90;;;;;;5054040;28;21055;-68
2022/11/10 06:54:09;;;;;;;7.37;4.37;;;13.90;99.90;;;;;;5053790;28;20419;-68
2022/11/10 06:56:35;;;;;;;7.90;4.77;;;13.90;99.90;;;;;;5053930;28;20227;-68
2022/11/10 06:59:00;;;;;;;25.97;6.20;;;13.90;99.90;;;;;;5054153;28;20173;-68
2022/11/10 07:01:27;;;;;;;13.30;6.90;;;13.90;99.90;;;;;;5054192;28;20192;-68
2022/11/10 07:03:53;;;;;;;15.60;5.43;;;13.90;99.90;;;;;;5053247;28;20645;-68
2022/11/10 07:06:19;;;;;;;14.77;5.03;;;13.80;99.90;;;;;;5051720;28;20435;-68
2022/11/10 07:08:46;;;;;;;13.13;6.10;;;13.90;99.90;;;;;;5052987;28;20518;-68
2022/11/10 07:11:11;;;;;;;22.03;6.83;;;13.90;99.90;;;;;;5053477;28;20501;-68
2022/11/10 07:13:37;;;;;;;19.10;6.17;;;13.90;99.90;;;;;;5053566;28;20455;-69
2022/11/10 07:16:04;;;;;;;10.57;5.50;;;13.90;99.90;;;;;;5053583;28;20181;-68
2022/11/10 07:18:30;;;;;;;13.30;7.37;;;13.90;99.90;;;;;;5054283;28;20557;-68
2022/11/10 07:20:55;;;;;;;13.00;6.70;;;13.90;99.90;;;;;;5035704;28;20423;-68
2022/11/10 07:23:21;;;;;;;8.57;5.77;;;13.90;99.90;;;;;;5036111;28;20225;-68
2022/11/10 07:25:46;;;;;;;14.60;7.67;;;13.90;99.90;;;;;;5053909;28;20173;-68
2022/11/10 07:28:12;;;;;;;6.47;5.30;;;13.90;99.90;;;;;;5053326;28;20192;-68
2022/11/10 07:30:40;;;;;;;12.30;5.80;;;13.90;99.90;;;;;;5053673;28;20204;-68
2022/11/10 07:33:11;;;;;;;14.10;5.90;;;13.90;99.90;;;;;;5053203;28;20258;-68
2022/11/10 07:35:37;;;;;;;9.00;6.27;;;14.00;99.90;;;;;;5036043;28;20903;-68
2022/11/10 07:38:09;;;;;;;7.80;6.00;;;14.00;99.90;;;;;;5051741;28;20439;-68
2022/11/10 07:40:37;;;;;;;11.37;5.97;;;14.00;99.90;;;;;;5053608;28;20403;-68
2022/11/10 07:43:03;;;;;;;8.57;5.70;;;14.00;99.90;;;;;;5053030;28;20405;-68
2022/11/10 07:45:31;;;;;;;7.27;5.80;;;14.00;99.90;;;;;;5053531;28;20904;-68
2022/11/10 07:48:05;;;;;;;9.90;6.83;;;14.00;99.90;;;;;;5052967;28;20178;-68
2022/11/10 07:50:35;;;;;;;9.13;5.70;;;14.00;99.90;;;;;;5053076;28;20832;-68
2022/11/10 07:53:06;;;;;;;10.67;5.80;;;14.00;99.90;;;;;;5053063;28;20460;-68
2022/11/10 07:55:32;;;;;;;8.30;5.03;;;14.00;99.90;;;;;;5044548;28;20849;-68
2022/11/10 07:57:58;;;;;;;13.03;7.13;;;14.10;99.90;;;;;;5051033;28;20855;-68
2022/11/10 08:00:24;;;;;;;18.60;8.67;;;14.10;99.90;;;;;;5053144;28;20401;-68
2022/11/10 08:02:51;;;;;;;14.57;6.90;;;14.30;99.90;;;;;;5035453;28;20466;-68
2022/11/10 08:05:17;;;;;;;8.10;5.53;;;14.30;99.90;;;;;;5052858;28;20933;-68
2022/11/10 08:07:43;;;;;;;11.40;5.60;;;14.30;99.90;;;;;;5052697;28;20459;-68
2022/11/10 08:10:09;;;;;;;8.43;5.07;;;14.40;99.90;;;;;;5052394;28;20464;-68
2022/11/10 08:12:35;;;;;;;10.43;5.50;;;14.40;99.90;;;;;;5053150;28;20180;-68
2022/11/10 08:15:01;;;;;;;7.23;5.30;;;14.40;99.90;;;;;;5052231;28;20177;-68
2022/11/10 08:17:26;;;;;;;7.37;6.23;;;14.50;99.90;;;;;;5052383;28;20412;-68
2022/11/10 08:19:52;;;;;;;10.13;6.00;;;14.50;99.90;;;;;;5053001;28;20496;-68
2022/11/10 08:22:18;;;;;;;9.70;5.97;;;14.60;99.90;;;;;;5052101;28;20257;-68
2022/11/10 08:24:44;;;;;;;12.40;7.40;;;14.60;99.90;;;;;;5051301;28;20258;-68
2022/11/10 08:27:09;;;;;;;8.47;6.20;;;14.70;99.90;;;;;;5047814;28;20236;-68
2022/11/10 08:29:35;;;;;;;9.27;6.73;;;14.70;99.90;;;;;;5053104;28;20168;-68
2022/11/10 08:32:01;;;;;;;9.97;6.27;;;14.80;99.90;;;;;;5052187;28;20537;-67
2022/11/10 08:34:26;;;;;;;8.53;6.10;;;14.90;99.90;;;;;;5052751;28;20237;-68
2022/11/10 08:36:52;;;;;;;8.70;5.47;;;14.90;99.90;;;;;;5052600;28;20180;-68
2022/11/10 08:39:18;;;;;;;6.20;5.60;;;14.90;99.90;;;;;;5034284;28;20171;-69
2022/11/10 08:41:44;;;;;;;9.27;6.20;;;14.90;99.90;;;;;;5034836;28;20543;-69
2022/11/10 08:44:11;;;;;;;9.43;6.33;;;15.10;99.90;;;;;;5052043;28;20239;-67
2022/11/10 08:46:37;;;;;;;8.67;6.80;;;15.20;99.90;;;;;;5051672;28;20427;-67
2022/11/10 08:49:02;;;;;;;10.07;6.73;;;15.40;99.90;;;;;;5051978;28;20867;-68
2022/11/10 08:51:28;;;;;;;7.93;5.10;;;15.60;99.90;;;;;;5052567;28;20608;-68
2022/11/10 08:53:54;;;;;;;8.17;5.10;;;15.70;99.90;;;;;;5052470;28;20181;-67
2022/11/10 08:56:19;;;;;;;17.83;5.57;;;16.10;99.90;;;;;;5051887;28;20176;-67
2022/11/10 08:58:45;;;;;;;6.67;4.07;;;16.60;99.90;;;;;;5052227;28;20165;-67
2022/11/10 09:01:11;;;;;;;8.20;4.43;;;17.00;99.90;;;;;;5051504;28;20684;-68
2022/11/10 09:03:37;;;;;;;5.77;4.50;;;17.50;99.80;;;;;;5052841;28;20626;-68
2022/11/10 09:06:03;;;;;;;12.03;5.13;;;17.90;97.80;;;;;;5050837;28;20449;-67
2022/11/10 09:08:32;;;;;;;8.77;4.70;;;18.10;97.60;;;;;;5052266;28;20518;-68
2022/11/10 09:11:02;;;;;;;7.50;3.90;;;18.40;96.50;;;;;;5051637;28;20212;-69
2022/11/10 09:13:28;;;;;;;10.50;5.57;;;18.40;95.80;;;;;;5052242;28;20408;-68
2022/11/10 09:15:54;;;;;;;10.97;4.57;;;18.30;95.70;;;;;;5051142;28;20430;-67
2022/11/10 09:18:19;;;;;;;5.83;4.20;;;18.20;96.50;;;;;;5051374;28;20169;-67
2022/11/10 09:20:45;;;;;;;7.30;4.43;;;18.10;96.40;;;;;;5051443;28;20226;-68
2022/11/10 09:23:13;;;;;;;9.47;4.57;;;18.00;96.70;;;;;;5033548;28;20178;-67
2022/11/10 09:25:40;;;;;;;5.30;3.60;;;17.90;97.20;;;;;;5051947;28;20170;-68
2022/11/10 09:28:11;;;;;;;6.60;4.27;;;17.80;97.30;;;;;;5051155;28;20896;-67
2022/11/10 09:30:37;;;;;;;8.60;4.40;;;17.60;97.40;;;;;;5055714;28;21042;-67
2022/11/10 09:33:02;;;;;;;6.30;4.00;;;17.70;97.70;;;;;;5055318;28;20487;-68
2022/11/10 09:35:28;;;;;;;8.50;4.30;;;17.80;97.40;;;;;;5055901;28;20185;-67
2022/11/10 09:37:54;;;;;;;7.63;4.33;;;17.90;97.40;;;;;;5032471;28;20195;-67
2022/11/10 09:40:30;;;;;;;6.83;3.60;;;17.80;97.40;;;;;;5033073;28;20777;-68
2022/11/10 09:43:00;;;;;;;7.03;4.20;;;17.60;97.20;;;;;;5033708;28;20182;-68
2022/11/10 09:45:29;;;;;;;7.60;4.10;;;17.70;97.90;;;;;;5033539;28;20401;-67
2022/11/10 09:48:14;;;;;;;6.73;4.53;;;17.80;98.00;;;;;;5033679;28;20436;-68
2022/11/10 09:50:54;;;;;;;7.60;3.60;;;17.90;98.00;;;;;;5033450;28;20529;-67
2022/11/10 09:53:56;;;;;;;5.20;3.70;;;18.20;97.50;;;;;;5032849;28;20432;-68
2022/11/10 09:56:33;;;;;;;6.00;3.40;;;18.50;96.50;;;;;;5014314;28;20843;-67
2022/11/10 09:59:01;;;;;;;7.70;2.83;;;18.90;95.90;;;;;;5033322;28;20420;-67
2022/11/10 10:01:37;;;;;;;7.23;4.27;;;19.10;94.90;;;;;;5033249;28;20452;-68
2022/11/10 10:04:24;;;;;;;7.50;4.00;;;19.30;94.80;;;;;;5032751;28;20424;-68
2022/11/10 10:07:18;;;;;;;9.83;4.47;;;19.50;95.30;;;;;;4993533;28;20462;-67
2022/11/10 10:09:54;;;;;;;6.87;4.07;;;19.60;93.30;;;;;;4993040;28;20474;-68
2022/11/10 10:12:23;;;;;;;6.60;3.93;;;19.50;93.10;;;;;;4993212;28;20431;-68
2022/11/10 10:15:01;;;;;;;8.50;3.90;;;19.60;93.90;;;;;;4993982;28;20442;-67
2022/11/10 10:17:36;;;;;;;6.10;4.07;;;19.80;92.60;;;;;;4993768;28;20415;-67
2022/11/10 10:20:40;;;;;;;5.33;3.70;;;20.00;92.70;;;;;;4992008;28;20588;-68
2022/11/10 10:23:27;;;;;;;7.10;3.07;;;20.30;92.00;;;;;;4992958;28;20477;-68
2022/11/10 10:25:53;;;;;;;6.90;3.50;;;20.50;91.20;;;;;;4993596;28;20419;-67
2022/11/10 10:28:22;;;;;;;7.80;3.80;;;20.60;90.70;;;;;;4992849;28;20523;-68
2022/11/10 10:30:47;;;;;;;10.57;4.47;;;20.70;90.50;;;;;;4993281;28;20493;-67
2022/11/10 10:33:22;;;;;;;9.87;4.70;;;20.90;90.40;;;;;;4992817;28;20408;-68
2022/11/10 10:35:49;;;;;;;9.07;3.40;;;20.90;89.30;;;;;;4993332;28;20295;-67
2022/11/10 10:38:24;;;;;;;5.97;3.43;;;20.90;89.70;;;;;;5033752;28;20431;-68
2022/11/10 10:40:52;;;;;;;6.27;4.43;;;21.10;90.20;;;;;;5054698;28;20406;-67
2022/11/10 10:43:18;;;;;;;9.53;4.23;;;21.20;88.70;;;;;;5054183;28;20412;-67
2022/11/10 10:45:44;;;;;;;9.50;3.90;;;21.20;87.00;;;;;;5055006;28;20465;-68
2022/11/10 10:48:27;;;;;;;9.03;2.90;;;21.00;87.50;;;;;;5053807;28;20443;-68
2022/11/10 10:50:52;;;;;;;9.87;3.90;;;21.20;87.40;;;;;;5053205;28;20554;-67
2022/11/10 10:53:21;;;;;;;4.13;3.73;;;21.40;87.30;;;;;;5053733;28;20859;-68
2022/11/10 10:56:00;;;;;;;9.10;4.03;;;21.50;86.40;;;;;;5054541;28;20288;-68
2022/11/10 10:58:29;;;;;;;5.83;4.00;;;21.60;84.90;;;;;;5053556;28;20424;-67
2022/11/10 11:01:18;;;;;;;8.23;3.63;;;21.50;84.30;;;;;;5054367;28;20418;-67
2022/11/10 11:03:52;;;;;;;6.07;3.40;;;21.40;85.90;;;;;;5009915;28;20908;-67
2022/11/10 11:06:20;;;;;;;5.73;4.13;;;21.50;85.20;;;;;;5053558;28;20432;-68
2022/11/10 11:09:06;;;;;;;8.67;4.17;;;21.10;85.50;;;;;;5054651;28;20507;-68
2022/11/10 11:11:37;;;;;;;9.37;3.87;;;21.20;86.30;;;;;;5054071;28;20458;-67
2022/11/10 11:14:19;;;;;;;5.50;3.60;;;21.20;85.60;;;;;;5053932;28;20448;-67
2022/11/10 11:16:51;;;;;;;4.87;4.20;;;21.30;85.60;;;;;;5054192;28;20400;-68
2022/11/10 11:19:20;;;;;;;8.90;4.60;;;21.40;84.90;;;;;;5052568;28;20841;-68
2022/11/10 11:22:07;;;;;;;6.47;3.43;;;21.40;84.50;;;;;;5054055;28;20412;-67
2022/11/10 11:24:41;;;;;;;9.63;4.00;;;21.30;85.30;;;;;;5053723;28;20427;-67
2022/11/10 11:27:19;;;;;;;4.40;3.93;;;21.10;84.40;;;;;;5053418;28;20741;-68
2022/11/10 11:29:47;;;;;;;7.70;3.83;;;21.10;84.40;;;;;;5036124;28;20427;-67
2022/11/10 11:32:28;;;;;;;5.57;4.10;;;21.00;86.40;;;;;;5052875;28;20816;-68
2022/11/10 11:35:18;;;;;;;6.73;4.40;;;21.10;85.40;;;;;;5053928;28;20444;-67
2022/11/10 11:38:13;;;;;;;4.90;3.40;;;21.10;85.50;;;;;;5054040;28;20416;-68
2022/11/10 11:41:07;;;;;;;8.03;4.60;;;21.10;85.00;;;;;;5053442;28;20448;-67
2022/11/10 11:43:55;;;;;;;7.27;4.50;;;21.00;85.60;;;;;;5053590;28;20930;-67
2022/11/10 11:46:23;;;;;;;9.83;4.67;;;20.90;85.50;;;;;;5034375;28;20432;-68
2022/11/10 11:48:51;;;;;;;4.93;4.07;;;20.80;86.30;;;;;;5053091;28;20421;-68
2022/11/10 11:51:55;;;;;;;4.53;3.90;;;20.80;85.70;;;;;;5052083;28;20594;-68
2022/11/10 11:54:26;;;;;;;8.03;4.97;;;20.80;86.80;;;;;;5048910;28;20514;-67
2022/11/10 11:57:15;;;;;;;5.67;5.10;;;20.70;86.10;;;;;;5053072;28;20446;-67
2022/11/10 12:00:16;;;;;;;3.97;3.57;;;20.60;85.90;;;;;;5053337;28;20403;-68
2022/11/10 12:03:09;;;;;;;6.90;3.67;;;20.60;87.40;;;;;;4956170;28;20554;-67
2022/11/10 12:05:45;;;;;;;5.63;3.87;;;20.40;87.60;;;;;;5051291;28;20494;-67
2022/11/10 12:08:34;;;;;;;8.37;5.50;;;20.40;89.00;;;;;;5033575;28;20994;-68
2022/11/10 12:11:50;;;;;;;9.30;4.90;;;20.40;88.00;;;;;;5034760;28;20464;-67
2022/11/10 12:14:28;;;;;;;6.00;3.50;;;20.40;87.50;;;;;;5048169;28;20768;-68
2022/11/10 12:17:26;;;;;;;5.33;3.73;;;20.20;87.70;;;;;;5050234;28;20427;-67
2022/11/10 12:20:16;;;;;;;4.50;3.00;;;20.10;87.80;;;;;;5052962;28;20407;-67
2022/11/10 12:22:53;;;;;;;6.13;3.73;;;20.00;88.00;;;;;;5042649;28;20436;-67
2022/11/10 12:25:47;;;;;;;4.60;2.83;;;20.00;87.00;;;;;;5032274;28;20417;-68
2022/11/10 12:28:31;;;;;;;8.17;3.60;;;19.80;88.50;;;;;;5035999;28;20424;-68
2022/11/10 12:31:00;;;;;;;5.00;3.23;;;19.80;89.30;;;;;;5034387;28;20502;-67
2022/11/10 12:33:43;;;;;;;8.63;3.70;;;19.70;88.00;;;;;;5052099;28;20412;-67
2022/11/10 12:36:16;;;;;;;4.37;3.23;;;19.70;88.80;;;;;;5033334;28;20440;-70
2022/11/10 12:39:02;;;;;;;5.13;3.00;;;19.60;88.30;;;;;;5037236;28;20432;-68
2022/11/10 12:41:36;;;;;;;5.47;3.20;;;19.60;88.60;;;;;;5037201;28;20475;-68
2022/11/10 12:44:26;;;;;;;7.10;3.13;;;19.50;88.10;;;;;;5032792;28;20506;-67
2022/11/10 12:47:04;;;;;;;3.87;3.00;;;19.40;87.80;;;;;;5050235;28;20523;-68
2022/11/10 12:49:35;;;;;;;5.47;2.90;;;19.30;87.60;;;;;;5052241;28;20511;-68
2022/11/10 12:52:16;;;;;;;5.73;2.70;;;19.20;88.90;;;;;;5050729;28;20468;-68
2022/11/10 12:54:43;;;;;;;6.03;3.33;;;19.20;89.10;;;;;;5052515;28;20420;-68
2022/11/10 12:57:25;;;;;;;5.60;3.37;;;19.20;89.30;;;;;;5052181;28;20423;-67
2022/11/10 13:00:06;;;;;;;6.37;3.73;;;19.10;89.70;;;;;;5052342;28;20400;-67
2022/11/10 13:02:32;;;;;;;5.10;3.70;;;19.20;89.60;;;;;;5052158;28;20408;-68
2022/11/10 13:05:13;;;;;;;6.07;3.80;;;19.00;87.40;;;;;;5038853;28;20435;-68
2022/11/10 13:07:43;;;;;;;4.57;3.10;;;18.90;88.50;;;;;;5056103;28;20588;-67
2022/11/10 13:10:26;;;;;;;7.37;2.80;;;18.90;89.50;;;;;;5022215;28;20424;-68